Time;durP1;ratioP1;P1;durP2;ratioP2;P2;SDS_P1;SDS_P2;PMS_P1;PMS_P2;Temp;Humidity;BMP_temperature;BMP_pressure;BME280_temperature;BME280_humidity;BME280_pressure;Samples;Min_cycle;Max_cycle;Signal;HPM_P1;HPM_P2
2022/03/13 00:01:42;;;;;;;19.00;10.23;;;0.60;90.00;;;;;;4992060;28;20027;-73
2022/03/13 00:04:08;;;;;;;24.00;12.50;;;0.60;90.00;;;;;;4974593;28;20093;-73
2022/03/13 00:06:36;;;;;;;25.17;13.03;;;0.50;90.00;;;;;;4991834;28;20019;-73
2022/03/13 00:09:05;;;;;;;23.00;11.87;;;0.50;90.10;;;;;;4991251;28;20046;-73
2022/03/13 00:11:32;;;;;;;17.63;9.57;;;0.40;90.30;;;;;;4991710;28;20026;-73
2022/03/13 00:13:58;;;;;;;43.37;18.20;;;0.40;90.20;;;;;;4991319;28;20328;-73
2022/03/13 00:16:25;;;;;;;22.83;11.10;;;0.40;90.50;;;;;;4991865;28;20042;-73
2022/03/13 00:18:51;;;;;;;31.47;14.10;;;0.40;90.30;;;;;;4991635;28;20030;-73
2022/03/13 00:21:19;;;;;;;21.80;11.10;;;0.40;90.40;;;;;;4993986;28;20097;-73
2022/03/13 00:23:46;;;;;;;25.13;10.83;;;0.30;91.00;;;;;;4978214;28;20030;-74
2022/03/13 00:26:13;;;;;;;23.43;11.97;;;0.30;91.10;;;;;;4995610;28;20022;-73
2022/03/13 00:28:39;;;;;;;24.80;11.37;;;0.30;91.40;;;;;;4978118;28;20022;-73
2022/03/13 00:31:05;;;;;;;21.23;9.33;;;0.20;91.40;;;;;;4995498;28;20383;-73
2022/03/13 00:33:31;;;;;;;46.50;16.53;;;0.20;91.60;;;;;;4995916;28;20018;-72
2022/03/13 00:35:57;;;;;;;28.27;12.80;;;0.20;92.10;;;;;;4995695;28;20037;-73
2022/03/13 00:38:25;;;;;;;31.07;14.20;;;0.10;92.00;;;;;;4995777;28;20030;-73
2022/03/13 00:40:51;;;;;;;29.13;14.03;;;0.10;92.60;;;;;;4995616;28;20022;-73
2022/03/13 00:43:19;;;;;;;20.73;9.40;;;0.10;92.90;;;;;;4995727;28;20038;-73
2022/03/13 00:45:45;;;;;;;24.43;9.40;;;0.00;93.10;;;;;;4995580;28;20033;-73
2022/03/13 00:48:11;;;;;;;24.90;11.37;;;0.00;93.00;;;;;;4995332;28;20097;-73
2022/03/13 00:50:36;;;;;;;22.13;10.50;;;-0.10;93.30;;;;;;4995311;28;20027;-73
2022/03/13 00:53:02;;;;;;;20.83;10.60;;;-0.10;93.50;;;;;;4995416;28;20198;-73
2022/03/13 00:55:28;;;;;;;39.60;15.77;;;-0.10;93.70;;;;;;4995039;28;20096;-73
2022/03/13 00:57:54;;;;;;;40.93;16.73;;;-0.20;93.50;;;;;;4977886;28;20293;-73
2022/03/13 01:00:20;;;;;;;21.57;11.20;;;-0.20;93.70;;;;;;4994749;28;20030;-73
2022/03/13 01:02:46;;;;;;;16.57;9.07;;;-0.20;93.80;;;;;;4995289;28;20030;-73
2022/03/13 01:05:20;;;;;;;16.50;9.07;;;-0.30;94.10;;;;;;4977469;28;20416;-73
2022/03/13 01:07:46;;;;;;;17.85;9.95;;;-0.30;94.10;;;;;;4993701;28;20042;-73
2022/03/13 01:10:11;;;;;;;21.70;10.17;;;-0.30;94.20;;;;;;4977646;28;20096;-73
2022/03/13 01:12:37;;;;;;;17.57;10.10;;;-0.30;94.60;;;;;;4994810;28;20370;-73
2022/03/13 01:15:04;;;;;;;21.63;9.67;;;-0.40;94.90;;;;;;4994876;28;20031;-73
2022/03/13 01:17:29;;;;;;;21.67;9.40;;;-0.40;95.30;;;;;;4994547;28;20022;-73
2022/03/13 01:19:55;;;;;;;17.53;9.47;;;-0.50;95.50;;;;;;4994416;28;20037;-72
2022/03/13 01:22:21;;;;;;;20.13;10.63;;;-0.50;95.80;;;;;;4994866;28;20447;-72
2022/03/13 01:24:46;;;;;;;23.40;11.90;;;-0.60;96.10;;;;;;4994733;28;20037;-73
2022/03/13 01:27:16;;;;;;;19.13;9.43;;;-0.50;96.40;;;;;;4994954;28;20022;-73
2022/03/13 01:29:43;;;;;;;19.93;9.00;;;-0.60;96.40;;;;;;4994444;28;20468;-72
2022/03/13 01:32:10;;;;;;;16.10;8.30;;;-0.60;96.30;;;;;;4994626;28;20022;-73
2022/03/13 01:34:41;;;;;;;19.17;8.83;;;-0.60;96.60;;;;;;4994671;28;20096;-73
2022/03/13 01:37:11;;;;;;;13.50;7.77;;;-0.60;96.30;;;;;;4994681;28;20018;-73
2022/03/13 01:39:37;;;;;;;14.43;7.73;;;-0.60;96.40;;;;;;4994648;28;20029;-73
2022/03/13 01:42:04;;;;;;;13.73;7.53;;;-0.60;96.40;;;;;;4992989;28;20023;-73
2022/03/13 01:44:30;;;;;;;11.40;6.97;;;-0.60;96.10;;;;;;4992830;28;20428;-73
2022/03/13 01:46:56;;;;;;;11.43;6.57;;;-0.60;95.20;;;;;;4994239;28;20033;-73
2022/03/13 01:49:23;;;;;;;13.60;7.50;;;-0.60;95.00;;;;;;4994302;28;20022;-73
2022/03/13 01:51:48;;;;;;;14.30;6.40;;;-0.60;95.10;;;;;;4994229;28;20025;-74
2022/03/13 01:54:14;;;;;;;11.20;6.30;;;-0.70;95.30;;;;;;4994168;28;20101;-73
2022/03/13 01:56:40;;;;;;;13.17;6.33;;;-0.70;95.70;;;;;;4992478;28;20077;-74
2022/03/13 01:59:08;;;;;;;12.87;6.23;;;-0.70;95.80;;;;;;4994241;28;20057;-74
2022/03/13 02:01:35;;;;;;;9.70;5.67;;;-0.70;95.70;;;;;;4994226;28;20117;-74
2022/03/13 02:04:01;;;;;;;15.60;7.70;;;-0.70;95.40;;;;;;4976911;28;20372;-75
2022/03/13 02:06:27;;;;;;;10.00;5.60;;;-0.70;95.20;;;;;;4993936;28;20034;-75
2022/03/13 02:08:54;;;;;;;12.93;5.23;;;-0.70;94.80;;;;;;4973308;28;20135;-74
2022/03/13 02:11:21;;;;;;;10.13;4.43;;;-0.80;95.00;;;;;;4974363;28;20031;-74
2022/03/13 02:13:49;;;;;;;9.77;5.43;;;-0.70;94.50;;;;;;4974326;28;20027;-74
2022/03/13 02:16:16;;;;;;;8.03;5.17;;;-0.70;94.20;;;;;;4989087;28;20031;-74
2022/03/13 02:18:48;;;;;;;10.17;5.30;;;-0.70;94.10;;;;;;4974218;28;20484;-73
2022/03/13 02:21:15;;;;;;;10.33;5.53;;;-0.70;94.20;;;;;;4974071;28;20038;-74
2022/03/13 02:23:41;;;;;;;10.33;5.00;;;-0.70;94.10;;;;;;4974208;28;20035;-73
2022/03/13 02:26:07;;;;;;;10.90;5.03;;;-0.80;93.90;;;;;;4974131;28;20026;-73
2022/03/13 02:28:35;;;;;;;9.47;5.53;;;-0.80;94.20;;;;;;4973896;28;20031;-74
2022/03/13 02:31:11;;;;;;;10.53;5.57;;;-0.80;94.60;;;;;;4973979;28;20031;-73
2022/03/13 02:33:38;;;;;;;9.20;5.13;;;-0.70;94.60;;;;;;4973793;28;20027;-73
2022/03/13 02:36:12;;;;;;;10.33;5.00;;;-0.80;94.70;;;;;;4972509;28;20420;-73
2022/03/13 02:38:38;;;;;;;14.50;6.13;;;-0.80;95.10;;;;;;4973997;28;20030;-73
2022/03/13 02:41:05;;;;;;;13.90;5.73;;;-0.90;94.90;;;;;;4974076;28;20101;-73
2022/03/13 02:43:30;;;;;;;10.00;5.40;;;-0.90;94.70;;;;;;4973241;28;20027;-73
2022/03/13 02:45:56;;;;;;;8.97;4.97;;;-0.90;94.60;;;;;;4972888;28;20034;-73
2022/03/13 02:48:21;;;;;;;11.37;4.93;;;-0.90;95.20;;;;;;4973687;28;20026;-74
2022/03/13 02:50:47;;;;;;;10.33;5.17;;;-1.00;95.10;;;;;;4988409;28;20392;-74
2022/03/13 02:53:16;;;;;;;10.47;5.53;;;-1.00;95.00;;;;;;4973734;28;20349;-73
2022/03/13 02:55:42;;;;;;;10.00;5.77;;;-1.00;95.30;;;;;;4973521;28;20034;-73
2022/03/13 02:58:10;;;;;;;8.03;5.00;;;-1.00;95.60;;;;;;4973461;28;20034;-73
2022/03/13 03:00:53;;;;;;;9.87;5.67;;;-1.00;95.90;;;;;;4973539;28;20476;-73
2022/03/13 03:03:21;;;;;;;11.37;5.57;;;-1.10;96.10;;;;;;4973383;28;20082;-73
2022/03/13 03:05:47;;;;;;;10.90;5.50;;;-1.10;96.60;;;;;;4973391;28;20497;-73
2022/03/13 03:08:13;;;;;;;11.50;6.70;;;-1.10;96.80;;;;;;4981388;28;20096;-72
2022/03/13 03:10:39;;;;;;;10.40;5.27;;;-1.10;97.10;;;;;;4992699;28;20027;-73
2022/03/13 03:13:07;;;;;;;12.03;6.03;;;-1.20;97.00;;;;;;4992673;28;20376;-73
2022/03/13 03:15:32;;;;;;;13.73;6.60;;;-1.20;97.60;;;;;;4992609;28;20029;-73
2022/03/13 03:17:58;;;;;;;22.93;10.00;;;-1.20;97.90;;;;;;4992422;28;20030;-73
2022/03/13 03:20:23;;;;;;;25.27;11.83;;;-1.30;97.90;;;;;;4992472;28;20018;-73
2022/03/13 03:22:51;;;;;;;28.87;12.33;;;-1.30;97.90;;;;;;4991390;28;20037;-73
2022/03/13 03:25:25;;;;;;;32.63;12.87;;;-1.30;98.00;;;;;;4992352;28;20097;-73
2022/03/13 03:27:55;;;;;;;34.10;12.33;;;-1.40;98.10;;;;;;4992487;28;20109;-73
2022/03/13 03:30:23;;;;;;;24.13;11.17;;;-1.40;98.70;;;;;;4991054;28;20494;-73
2022/03/13 03:32:50;;;;;;;22.53;10.27;;;-1.40;98.60;;;;;;4992474;28;20026;-73
2022/03/13 03:35:23;;;;;;;18.47;8.80;;;-1.40;99.20;;;;;;4992546;28;20038;-73
2022/03/13 03:37:51;;;;;;;17.17;8.37;;;-1.40;99.30;;;;;;4992425;28;20152;-73
2022/03/13 03:40:20;;;;;;;24.53;8.57;;;-1.50;99.90;;;;;;4991795;28;20033;-73
2022/03/13 03:42:45;;;;;;;14.97;8.53;;;-1.50;99.90;;;;;;4991774;28;20480;-74
2022/03/13 03:45:11;;;;;;;17.27;8.20;;;-1.50;99.90;;;;;;4974371;28;20029;-73
2022/03/13 03:47:36;;;;;;;17.40;9.00;;;-1.60;99.90;;;;;;4992183;28;20403;-73
2022/03/13 03:50:03;;;;;;;14.20;7.67;;;-1.60;99.90;;;;;;4992306;28;20384;-73
2022/03/13 03:52:28;;;;;;;18.47;8.10;;;-1.70;99.90;;;;;;4990965;28;20066;-73
2022/03/13 03:54:54;;;;;;;14.97;7.57;;;-1.70;99.90;;;;;;4991583;28;20064;-74
2022/03/13 03:57:20;;;;;;;16.10;8.13;;;-1.80;99.90;;;;;;4996070;28;20026;-74
2022/03/13 03:59:45;;;;;;;15.93;7.93;;;-1.80;99.90;;;;;;4996153;28;20022;-74
2022/03/13 04:02:12;;;;;;;14.17;7.30;;;-1.80;99.90;;;;;;4996028;28;20023;-73
2022/03/13 04:04:39;;;;;;;14.07;8.00;;;-1.80;99.90;;;;;;4994819;28;20352;-74
2022/03/13 04:07:04;;;;;;;13.63;7.43;;;-1.80;99.90;;;;;;4995790;28;20333;-74
2022/03/13 04:09:30;;;;;;;17.33;7.80;;;-1.80;99.90;;;;;;4995700;28;20062;-74
2022/03/13 04:11:56;;;;;;;15.30;7.67;;;-1.90;99.90;;;;;;4995825;28;20041;-74
2022/03/13 04:14:22;;;;;;;16.13;8.93;;;-1.90;99.90;;;;;;4996190;28;20030;-74
2022/03/13 04:16:48;;;;;;;12.10;8.37;;;-1.90;99.90;;;;;;4996057;28;20049;-74
2022/03/13 04:19:14;;;;;;;15.03;7.70;;;-1.90;99.90;;;;;;4996136;28;20054;-75
2022/03/13 04:21:41;;;;;;;14.00;8.10;;;-1.90;99.90;;;;;;4995552;28;20486;-74
2022/03/13 04:24:11;;;;;;;16.63;8.60;;;-2.00;99.90;;;;;;4995804;28;20519;-72
2022/03/13 04:26:39;;;;;;;15.03;7.90;;;-2.00;99.90;;;;;;4995353;28;20121;-73
2022/03/13 04:29:06;;;;;;;16.27;8.83;;;-2.00;99.90;;;;;;4994168;28;20022;-73
2022/03/13 04:31:34;;;;;;;15.73;9.10;;;-2.10;99.90;;;;;;4994304;28;20105;-73
2022/03/13 04:34:00;;;;;;;15.67;8.30;;;-2.10;99.90;;;;;;4995350;28;20072;-73
2022/03/13 04:36:26;;;;;;;15.10;8.43;;;-2.10;99.90;;;;;;4994134;28;20034;-74
2022/03/13 04:38:51;;;;;;;17.57;9.23;;;-2.10;99.90;;;;;;4995665;28;20102;-74
2022/03/13 04:41:17;;;;;;;15.50;8.60;;;-2.10;99.90;;;;;;4995570;28;20054;-74
2022/03/13 04:43:43;;;;;;;17.47;7.73;;;-2.20;99.90;;;;;;4995513;28;20356;-74
2022/03/13 04:46:09;;;;;;;13.20;8.17;;;-2.20;99.90;;;;;;4995321;28;20031;-73
2022/03/13 04:48:35;;;;;;;13.20;7.70;;;-2.20;99.90;;;;;;4994912;28;20102;-73
2022/03/13 04:51:01;;;;;;;14.80;7.20;;;-2.20;99.90;;;;;;4995125;28;20088;-74
2022/03/13 04:53:27;;;;;;;17.00;7.77;;;-2.20;99.90;;;;;;4995066;28;20041;-74
2022/03/13 04:55:53;;;;;;;13.70;8.10;;;-2.20;99.90;;;;;;4995090;28;20118;-73
2022/03/13 04:58:19;;;;;;;14.83;7.53;;;-2.20;99.90;;;;;;4994899;28;20042;-73
2022/03/13 05:00:47;;;;;;;14.87;7.67;;;-2.20;99.90;;;;;;4994738;28;20471;-73
2022/03/13 05:03:13;;;;;;;11.47;7.23;;;-2.10;99.90;;;;;;4977632;28;20030;-73
2022/03/13 05:05:40;;;;;;;15.57;7.63;;;-2.20;99.90;;;;;;4994609;28;20026;-73
2022/03/13 05:08:13;;;;;;;15.03;7.53;;;-2.20;99.90;;;;;;4994906;28;20039;-73
2022/03/13 05:10:40;;;;;;;15.13;7.70;;;-2.10;99.90;;;;;;4995317;28;20026;-73
2022/03/13 05:13:07;;;;;;;14.83;7.93;;;-2.10;99.90;;;;;;4977262;28;20022;-73
2022/03/13 05:15:34;;;;;;;15.60;7.97;;;-2.20;99.90;;;;;;4994719;28;20121;-73
2022/03/13 05:18:00;;;;;;;12.63;6.60;;;-2.20;99.90;;;;;;4994850;28;20034;-73
2022/03/13 05:20:26;;;;;;;14.60;7.27;;;-2.20;99.90;;;;;;4994532;28;20037;-73
2022/03/13 05:22:52;;;;;;;13.80;7.30;;;-2.20;99.90;;;;;;4993284;28;20026;-73
2022/03/13 05:25:17;;;;;;;12.77;8.20;;;-2.20;99.90;;;;;;4994576;28;20038;-74
2022/03/13 05:27:43;;;;;;;13.13;8.27;;;-2.20;99.90;;;;;;4994415;28;20073;-74
2022/03/13 05:30:10;;;;;;;11.53;7.53;;;-2.20;99.90;;;;;;4994540;28;20495;-74
2022/03/13 05:32:35;;;;;;;12.10;7.33;;;-2.30;99.90;;;;;;4994193;28;20380;-74
2022/03/13 05:35:04;;;;;;;15.97;8.50;;;-2.20;99.90;;;;;;4989605;28;20027;-74
2022/03/13 05:37:29;;;;;;;13.37;8.03;;;-2.30;99.90;;;;;;4985505;28;20029;-74
2022/03/13 05:39:55;;;;;;;15.57;8.23;;;-2.30;99.90;;;;;;4993685;28;20532;-74
2022/03/13 05:42:25;;;;;;;16.73;8.63;;;-2.30;99.90;;;;;;4992388;28;20019;-74
2022/03/13 05:44:54;;;;;;;11.33;7.70;;;-2.40;99.90;;;;;;4993927;28;20033;-75
2022/03/13 05:47:21;;;;;;;12.77;8.13;;;-2.40;99.90;;;;;;4994107;28;20088;-74
2022/03/13 05:49:47;;;;;;;16.87;7.70;;;-2.40;99.90;;;;;;4993830;28;20026;-74
2022/03/13 05:52:14;;;;;;;12.30;7.30;;;-2.50;99.90;;;;;;4993843;28;20026;-74
2022/03/13 05:54:41;;;;;;;9.63;6.40;;;-2.50;99.90;;;;;;4976495;28;20113;-74
2022/03/13 05:57:09;;;;;;;13.67;7.63;;;-2.50;99.90;;;;;;4966023;28;20023;-74
2022/03/13 05:59:35;;;;;;;13.93;7.57;;;-2.50;99.90;;;;;;4978950;28;20037;-74
2022/03/13 06:02:04;;;;;;;15.93;7.30;;;-2.40;99.90;;;;;;4991099;28;20023;-74
2022/03/13 06:04:32;;;;;;;14.27;7.43;;;-2.40;99.90;;;;;;4980297;28;20018;-74
2022/03/13 06:06:58;;;;;;;13.20;7.77;;;-2.40;99.90;;;;;;4993246;28;20450;-74
2022/03/13 06:09:23;;;;;;;12.97;7.77;;;-2.40;99.90;;;;;;4990567;28;20062;-73
2022/03/13 06:11:49;;;;;;;12.30;6.73;;;-2.30;99.90;;;;;;4988145;28;20030;-74
2022/03/13 06:14:14;;;;;;;13.53;6.87;;;-2.30;99.90;;;;;;4991515;28;20488;-74
2022/03/13 06:16:40;;;;;;;17.30;6.97;;;-2.20;99.90;;;;;;4989499;28;20539;-74
2022/03/13 06:19:06;;;;;;;14.10;7.77;;;-2.20;99.90;;;;;;4975521;28;20336;-74
2022/03/13 06:21:31;;;;;;;14.60;7.03;;;-2.10;99.90;;;;;;4982246;28;20033;-74
2022/03/13 06:23:57;;;;;;;15.23;7.30;;;-2.10;99.90;;;;;;4988855;28;20034;-74
2022/03/13 06:26:22;;;;;;;11.33;6.33;;;-2.00;99.90;;;;;;4991885;28;20357;-74
2022/03/13 06:28:48;;;;;;;11.57;6.90;;;-2.00;99.90;;;;;;4980141;28;20055;-74
2022/03/13 06:31:13;;;;;;;13.23;6.97;;;-2.00;99.90;;;;;;4979455;28;20037;-74
2022/03/13 06:33:39;;;;;;;17.60;8.37;;;-1.90;99.90;;;;;;4977783;28;20027;-74
2022/03/13 06:36:05;;;;;;;11.10;7.10;;;-1.80;99.90;;;;;;4990310;28;20033;-74
2022/03/13 06:38:30;;;;;;;13.97;7.27;;;-1.80;99.90;;;;;;4981405;28;20118;-78
2022/03/13 06:40:56;;;;;;;13.80;7.37;;;-1.70;99.90;;;;;;4991879;28;20033;-73
2022/03/13 06:43:22;;;;;;;16.60;8.33;;;-1.70;99.90;;;;;;4992750;28;20105;-73
2022/03/13 06:45:48;;;;;;;13.27;8.10;;;-1.60;99.90;;;;;;4993048;28;20105;-73
2022/03/13 06:48:15;;;;;;;14.33;8.20;;;-1.50;99.90;;;;;;4980941;28;20058;-74
2022/03/13 06:50:42;;;;;;;15.60;7.47;;;-1.50;99.90;;;;;;4970317;28;20383;-74
2022/03/13 06:53:10;;;;;;;13.50;8.10;;;-1.40;99.90;;;;;;4992195;28;20066;-75
2022/03/13 06:55:36;;;;;;;14.33;8.63;;;-1.30;99.90;;;;;;4973821;28;20030;-72
2022/03/13 06:58:01;;;;;;;13.77;7.87;;;-1.20;99.90;;;;;;4974672;28;20100;-71
2022/03/13 07:00:27;;;;;;;17.27;8.13;;;-1.10;99.90;;;;;;4975237;28;20029;-71
2022/03/13 07:02:52;;;;;;;12.93;7.70;;;-1.00;99.90;;;;;;4992582;28;20038;-72
2022/03/13 07:05:22;;;;;;;12.60;7.47;;;-0.90;99.90;;;;;;4992456;28;20050;-71
2022/03/13 07:07:48;;;;;;;14.63;7.63;;;-0.80;99.90;;;;;;4992602;28;20038;-71
2022/03/13 07:10:14;;;;;;;11.57;6.90;;;-0.70;99.90;;;;;;4992422;28;20149;-72
2022/03/13 07:12:43;;;;;;;13.13;7.37;;;-0.60;99.90;;;;;;4992759;28;20027;-71
2022/03/13 07:15:12;;;;;;;10.87;6.83;;;-0.50;99.90;;;;;;4976745;28;20424;-71
2022/03/13 07:17:38;;;;;;;15.80;7.40;;;-0.30;99.90;;;;;;4992269;28;20034;-71
2022/03/13 07:20:06;;;;;;;10.63;6.87;;;-0.20;99.90;;;;;;4992374;28;20148;-70
2022/03/13 07:22:31;;;;;;;14.53;6.80;;;-0.10;99.90;;;;;;4975590;28;20044;-72
2022/03/13 07:24:57;;;;;;;11.90;6.97;;;0.00;99.90;;;;;;4992668;28;20466;-71
2022/03/13 07:27:23;;;;;;;11.90;7.30;;;0.20;99.90;;;;;;4993058;28;20027;-71
2022/03/13 07:29:50;;;;;;;14.27;7.30;;;0.30;99.90;;;;;;4992712;28;20022;-71
2022/03/13 07:32:15;;;;;;;12.87;6.83;;;0.40;99.90;;;;;;4992793;28;20073;-71
2022/03/13 07:34:41;;;;;;;11.93;7.10;;;0.60;99.90;;;;;;4991243;28;20026;-73
2022/03/13 07:37:10;;;;;;;13.13;7.07;;;0.70;99.90;;;;;;4992555;28;20030;-73
2022/03/13 07:39:36;;;;;;;10.83;7.00;;;0.90;99.90;;;;;;4992297;28;20030;-69
2022/03/13 07:42:02;;;;;;;15.83;8.57;;;1.10;99.90;;;;;;4991863;28;20062;-70
2022/03/13 07:44:27;;;;;;;12.20;7.97;;;1.40;99.90;;;;;;4992935;28;20395;-73
2022/03/13 07:46:53;;;;;;;12.03;7.03;;;1.50;99.90;;;;;;4992939;28;20080;-72
2022/03/13 07:49:18;;;;;;;14.67;7.43;;;1.60;99.90;;;;;;4990878;28;20122;-73
2022/03/13 07:51:44;;;;;;;11.60;6.97;;;1.80;99.90;;;;;;4969705;28;20037;-73
2022/03/13 07:54:10;;;;;;;12.73;7.97;;;1.90;99.90;;;;;;4991465;28;20022;-73
2022/03/13 07:56:37;;;;;;;12.07;8.40;;;2.10;99.90;;;;;;4984691;28;20026;-72
2022/03/13 07:59:02;;;;;;;11.73;7.27;;;2.20;99.90;;;;;;4992507;28;20025;-73
2022/03/13 08:01:28;;;;;;;17.53;7.83;;;2.50;99.90;;;;;;4989656;28;20027;-72
2022/03/13 08:03:54;;;;;;;12.50;7.43;;;2.70;99.90;;;;;;4968945;28;20038;-72
2022/03/13 08:06:19;;;;;;;14.57;8.80;;;2.80;99.90;;;;;;4992050;28;20034;-73
2022/03/13 08:08:45;;;;;;;13.43;8.47;;;3.10;99.90;;;;;;4992231;28;20436;-73
2022/03/13 08:11:11;;;;;;;14.03;7.67;;;3.00;99.90;;;;;;4991735;28;20439;-72
2022/03/13 08:13:36;;;;;;;13.13;8.20;;;3.10;99.90;;;;;;4991754;28;20150;-72
2022/03/13 08:16:02;;;;;;;13.20;8.37;;;3.10;99.90;;;;;;4992252;28;20101;-72
2022/03/13 08:18:29;;;;;;;16.50;9.63;;;3.20;99.90;;;;;;4974369;28;20034;-72
2022/03/13 08:20:55;;;;;;;15.27;9.37;;;3.30;99.90;;;;;;4991118;28;20014;-77
2022/03/13 08:23:22;;;;;;;15.40;9.00;;;3.40;99.90;;;;;;4989789;28;20030;-77
2022/03/13 08:25:48;;;;;;;16.23;8.70;;;3.60;99.90;;;;;;4989192;28;20049;-77
2022/03/13 08:28:13;;;;;;;13.33;8.07;;;3.80;99.90;;;;;;4989511;28;20034;-78
2022/03/13 08:30:39;;;;;;;16.20;9.63;;;4.00;99.90;;;;;;4989815;28;20034;-77
2022/03/13 08:33:05;;;;;;;16.60;10.20;;;4.10;99.90;;;;;;4972571;28;20121;-76
2022/03/13 08:35:31;;;;;;;16.97;10.40;;;4.20;99.90;;;;;;4989856;28;20026;-77
2022/03/13 08:37:57;;;;;;;18.00;9.80;;;4.30;99.90;;;;;;4971656;28;20057;-77
2022/03/13 08:40:27;;;;;;;15.60;10.30;;;4.40;99.90;;;;;;4988676;28;20479;-77
2022/03/13 08:42:56;;;;;;;14.77;9.00;;;4.60;99.90;;;;;;4992923;28;20080;-77
2022/03/13 08:45:22;;;;;;;16.50;10.27;;;4.80;99.30;;;;;;4990463;28;20034;-77
2022/03/13 08:47:48;;;;;;;17.93;9.63;;;4.90;98.30;;;;;;4991346;28;20027;-77
2022/03/13 08:50:15;;;;;;;17.27;9.77;;;5.10;98.40;;;;;;4990593;28;20057;-77
2022/03/13 08:52:41;;;;;;;15.70;9.37;;;5.30;97.90;;;;;;4990217;28;20378;-77
2022/03/13 08:55:08;;;;;;;16.93;9.93;;;5.50;97.90;;;;;;4990329;28;20030;-77
2022/03/13 08:57:34;;;;;;;18.83;10.70;;;5.70;97.30;;;;;;4990332;28;20022;-77
2022/03/13 09:00:00;;;;;;;17.37;10.00;;;6.10;97.20;;;;;;4988442;28;20042;-77
2022/03/13 09:02:26;;;;;;;17.03;10.70;;;6.30;96.70;;;;;;4990145;28;20030;-77
2022/03/13 09:04:51;;;;;;;15.93;10.87;;;6.40;95.60;;;;;;4971890;28;20041;-77
2022/03/13 09:07:17;;;;;;;16.53;10.60;;;6.50;95.90;;;;;;4990171;28;20034;-77
2022/03/13 09:09:43;;;;;;;17.10;11.03;;;6.70;95.10;;;;;;4972231;28;20034;-77
2022/03/13 09:12:09;;;;;;;14.80;10.27;;;6.80;95.20;;;;;;4989812;28;20105;-77
2022/03/13 09:14:35;;;;;;;15.23;10.53;;;7.30;94.90;;;;;;4972582;28;20066;-77
2022/03/13 09:17:01;;;;;;;19.40;11.60;;;7.50;94.10;;;;;;4989215;28;20068;-77
2022/03/13 09:19:27;;;;;;;15.13;10.47;;;7.80;93.50;;;;;;4989712;28;20042;-77
2022/03/13 09:21:53;;;;;;;17.73;10.80;;;8.20;92.80;;;;;;4991555;28;20413;-74
2022/03/13 09:24:18;;;;;;;16.50;10.53;;;9.00;91.70;;;;;;4987859;28;20535;-74
2022/03/13 09:26:45;;;;;;;16.67;10.47;;;9.10;90.50;;;;;;4973529;28;20093;-73
2022/03/13 09:29:11;;;;;;;16.77;11.00;;;8.80;89.80;;;;;;4971498;28;20027;-73
2022/03/13 09:31:37;;;;;;;15.17;11.20;;;8.80;90.10;;;;;;4973059;28;20434;-74
2022/03/13 09:34:02;;;;;;;16.37;11.33;;;8.90;89.10;;;;;;4972673;28;20174;-73
2022/03/13 09:36:28;;;;;;;17.40;10.37;;;9.10;89.00;;;;;;4977519;28;20117;-74
2022/03/13 09:38:54;;;;;;;19.33;12.50;;;9.00;87.80;;;;;;4995473;28;20480;-71
2022/03/13 09:41:20;;;;;;;18.33;12.27;;;9.00;87.50;;;;;;4991535;28;20041;-71
2022/03/13 09:43:46;;;;;;;16.58;10.98;;;9.10;87.30;;;;;;4992094;28;20025;-72
2022/03/13 09:46:12;;;;;;;18.20;11.88;;;9.30;89.60;;;;;;4991944;28;20027;-72
2022/03/13 09:48:38;;;;;;;16.25;11.23;;;10.30;84.30;;;;;;4975126;28;20778;-72
2022/03/13 09:51:06;;;;;;;15.93;10.82;;;10.30;84.20;;;;;;4990658;28;20042;-72
2022/03/13 09:53:35;;;;;;;16.08;10.45;;;10.20;83.20;;;;;;4991484;28;20101;-72
2022/03/13 09:56:03;;;;;;;16.67;11.25;;;10.50;80.90;;;;;;4976474;28;20039;-72
2022/03/13 09:58:29;;;;;;;17.23;10.95;;;11.10;81.60;;;;;;4973759;28;20031;-72
2022/03/13 10:00:56;;;;;;;17.75;11.20;;;10.90;78.80;;;;;;4973919;28;20042;-72
2022/03/13 10:03:22;;;;;;;19.77;11.07;;;10.90;80.90;;;;;;4984827;28;20038;-72
2022/03/13 10:05:49;;;;;;;18.65;10.15;;;11.50;77.70;;;;;;4993243;28;20427;-72
2022/03/13 10:08:16;;;;;;;14.00;10.07;;;11.80;76.60;;;;;;4993263;28;20100;-72
2022/03/13 10:10:50;;;;;;;18.52;11.10;;;12.00;75.30;;;;;;4993394;28;20041;-72
2022/03/13 10:13:39;;;;;;;16.63;11.15;;;11.80;73.70;;;;;;4975501;28;20087;-72
2022/03/13 10:16:07;;;;;;;14.45;10.70;;;11.70;73.90;;;;;;4975612;28;20428;-72
2022/03/13 10:18:34;;;;;;;15.48;10.82;;;12.50;73.50;;;;;;4993185;28;20109;-72
2022/03/13 10:21:11;;;;;;;14.65;10.93;;;13.00;70.70;;;;;;4993177;28;20078;-72
2022/03/13 10:23:37;;;;;;;14.07;10.43;;;13.20;69.00;;;;;;4993258;28;20030;-72
2022/03/13 10:26:07;;;;;;;16.45;10.15;;;13.90;67.00;;;;;;4992776;28;20666;-72
2022/03/13 10:28:37;;;;;;;13.80;9.80;;;13.70;67.90;;;;;;4993116;28;20372;-72
2022/03/13 10:31:03;;;;;;;14.57;9.73;;;14.00;65.30;;;;;;4975214;28;20038;-72
2022/03/13 10:33:43;;;;;;;16.35;9.50;;;14.20;64.60;;;;;;4975407;28;20026;-72
2022/03/13 10:36:10;;;;;;;15.25;10.25;;;14.10;65.20;;;;;;4975407;28;20042;-72
2022/03/13 10:38:37;;;;;;;15.68;9.82;;;13.60;65.30;;;;;;4992776;28;20092;-72
2022/03/13 10:41:10;;;;;;;11.82;9.20;;;14.00;65.80;;;;;;4992610;28;20116;-72
2022/03/13 10:43:45;;;;;;;14.65;9.88;;;14.30;64.20;;;;;;4992553;28;20069;-73
2022/03/13 10:46:17;;;;;;;15.38;9.50;;;13.90;65.10;;;;;;4992508;28;20054;-72
2022/03/13 10:48:44;;;;;;;12.18;8.98;;;13.90;63.90;;;;;;4992454;28;20065;-73
2022/03/13 10:51:12;;;;;;;15.57;9.77;;;14.20;63.20;;;;;;4992399;28;20109;-72
2022/03/13 10:53:41;;;;;;;16.10;10.40;;;14.50;62.50;;;;;;4992246;28;20491;-72
2022/03/13 10:56:07;;;;;;;16.63;10.32;;;14.50;62.30;;;;;;4992515;28;20034;-72
2022/03/13 10:58:37;;;;;;;14.40;10.10;;;14.30;64.20;;;;;;4992262;28;20026;-72
2022/03/13 11:01:07;;;;;;;13.52;9.77;;;14.60;61.60;;;;;;4990979;28;20034;-72
2022/03/13 11:03:34;;;;;;;13.75;9.43;;;15.20;61.30;;;;;;4991357;28;20428;-72
2022/03/13 11:06:01;;;;;;;15.27;10.30;;;15.60;59.40;;;;;;4991774;28;20033;-73
2022/03/13 11:08:28;;;;;;;12.93;9.95;;;15.50;59.40;;;;;;4992062;28;20122;-73
2022/03/13 11:10:54;;;;;;;14.48;10.93;;;15.60;59.90;;;;;;4992278;28;20027;-72
2022/03/13 11:13:25;;;;;;;14.13;10.02;;;15.60;59.60;;;;;;4992028;28;20018;-73
2022/03/13 11:15:55;;;;;;;17.25;10.57;;;15.40;59.50;;;;;;4991915;28;20033;-73
2022/03/13 11:18:28;;;;;;;14.18;10.23;;;15.90;58.00;;;;;;4992062;28;20324;-72
2022/03/13 11:20:53;;;;;;;18.63;10.77;;;16.00;57.50;;;;;;4992053;28;20459;-73
2022/03/13 11:23:22;;;;;;;14.40;10.38;;;15.60;57.70;;;;;;4992050;28;20034;-72
2022/03/13 11:25:51;;;;;;;14.18;10.52;;;15.80;57.70;;;;;;4991739;28;20050;-74
2022/03/13 11:28:18;;;;;;;15.02;10.55;;;15.70;57.60;;;;;;4990769;28;20045;-72
2022/03/13 11:30:44;;;;;;;16.55;10.65;;;15.60;59.00;;;;;;4990236;28;20420;-72
2022/03/13 11:33:34;;;;;;;17.98;12.90;;;16.20;57.40;;;;;;4990138;28;20116;-72
2022/03/13 11:36:32;;;;;;;15.30;10.13;;;15.90;57.00;;;;;;4990548;28;20030;-73
2022/03/13 11:39:06;;;;;;;16.00;11.65;;;16.60;56.10;;;;;;4957971;28;20046;-73
2022/03/13 11:41:39;;;;;;;17.37;11.57;;;16.50;55.70;;;;;;4971012;28;20085;-73
2022/03/13 11:44:28;;;;;;;15.45;10.80;;;15.90;56.20;;;;;;4970977;28;20660;-73
2022/03/13 11:46:56;;;;;;;13.38;10.27;;;16.50;56.00;;;;;;4971005;28;20150;-73
2022/03/13 11:49:31;;;;;;;13.93;10.95;;;16.70;55.60;;;;;;4983386;28;20084;-73
2022/03/13 11:52:12;;;;;;;17.52;11.52;;;17.00;54.80;;;;;;4960976;28;20026;-80
2022/03/13 11:54:52;;;;;;;15.25;11.60;;;16.70;55.20;;;;;;4986707;28;20035;-73
2022/03/13 11:57:23;;;;;;;19.90;14.50;;;17.00;54.20;;;;;;4972463;28;20046;-71
2022/03/13 12:00:10;;;;;;;17.52;13.27;;;17.00;54.30;;;;;;4989802;28;20105;-72
2022/03/13 12:02:42;;;;;;;20.63;13.65;;;16.70;55.20;;;;;;4981438;28;20030;-71
2022/03/13 12:05:47;;;;;;;16.10;11.65;;;16.80;54.00;;;;;;4989871;28;20038;-71
2022/03/13 12:08:16;;;;;;;27.67;21.98;;;17.10;52.60;;;;;;4978975;28;20042;-70
2022/03/13 12:10:43;;;;;;;15.70;11.50;;;16.70;53.80;;;;;;4990198;28;20466;-68
2022/03/13 12:13:13;;;;;;;14.23;10.82;;;16.80;54.70;;;;;;4992151;28;20073;-66
2022/03/13 12:15:41;;;;;;;17.00;12.85;;;16.90;53.20;;;;;;4987165;28;20032;-65
2022/03/13 12:18:25;;;;;;;13.90;9.82;;;17.20;52.00;;;;;;4962735;28;20034;-65
2022/03/13 12:20:52;;;;;;;13.77;11.27;;;17.70;51.80;;;;;;4996573;28;20102;-66
2022/03/13 12:23:26;;;;;;;14.63;10.85;;;17.50;52.30;;;;;;4996608;28;20054;-67
2022/03/13 12:25:53;;;;;;;11.63;9.80;;;17.50;52.00;;;;;;4996688;28;20067;-68
2022/03/13 12:28:32;;;;;;;12.25;9.00;;;17.60;51.70;;;;;;4996875;28;20030;-67
2022/03/13 12:31:01;;;;;;;13.63;9.57;;;17.50;52.60;;;;;;4996823;28;20411;-70
2022/03/13 12:33:29;;;;;;;14.65;11.13;;;17.40;52.10;;;;;;4997347;28;20027;-73
2022/03/13 12:35:56;;;;;;;13.32;10.13;;;17.20;51.80;;;;;;4997188;28;20471;-73
2022/03/13 12:38:33;;;;;;;14.95;10.30;;;17.20;51.70;;;;;;4996982;28;20112;-74